Kezdőlap
METAR-TAF:

METAR-TAF

Repülőterek :

Lusakai nemzetközi repülőtér

Lusaka, Zambia

földrajzi szélesség: 15-19-51S, földrajzi hosszúság: 028-27-09E, magasság: 1152 m

Jelenlegi meteorológiai megfigyelések

A jelentés 1 órával és 52 perccel ezelõtt készült, 12:00 UTC
Keleti szél 12 kt
Hőmérséklet 30°C
Páratartalom 19%
Légköri nyomás 1018 hPa
Látótávolság: 8000 m

METAR: FLKK 231200Z 08012KT 8000 NSC 30/04 Q1018

Idő: 15:52 (13:52 UTC)


TAF: hiányzik

Meteorológiai megfigyelések és előrejelzések több, mint 4000 repülőtéren (METAR és TAF jelentéseket).

A térképen piros és sárga pontok jelzik az elérhető meteorológiai állomásokat.

Mozgassa az egeret a pont fölött, hogy megjelenjen az állomás neve.

Azután kattintson az időjárási megfigyelések és előrejelzések megtekintéséhez.

A térkép megváltoztatása: kattintson a fekete keresztel jelölt zöld gombra ráközelítéshez, a vonallal jelölt zöld gombra távolításhoz, vagy a zöld nyilakra a szomszédos térképek eléréséhez.


METAR-TAF: